Terminal Aerodrome Forecast
Issued by NWS Amarillo, TX

Home | Current Version | Previous Version | Text Only | Print | Product List | Glossary On
Versions: 1 2 3 4 5 6 7 8 9 10 11 12 13 14
000
FTUS44 KAMA 050500
TAFDHT
TAF
KDHT 050520Z 0506/0606 18011KT P6SM SCT200
     FM051400 20016G26KT P6SM SCT200
     FM051900 18018G28KT P6SM SCT090
     FM060200 17014KT P6SM SCT060 BKN200=

USA.gov is the U.S. government's official web portal to all federal, state and local government web resources and services.